createdAt,value
2023-01-07T00:02:26.609Z,92.53
2023-01-07T00:04:53.715Z,93.10
2023-01-07T00:07:23.475Z,92.51
2023-01-07T00:09:50.536Z,92.24
2023-01-07T00:12:17.594Z,92.28
2023-01-07T00:14:44.616Z,91.97
2023-01-07T00:17:11.315Z,91.81
2023-01-07T00:19:39.235Z,91.80
2023-01-07T00:22:06.235Z,91.60
2023-01-07T00:24:33.335Z,91.32
2023-01-07T00:27:00.400Z,91.68
2023-01-07T00:29:27.441Z,91.25
2023-01-07T00:31:54.870Z,91.69
2023-01-07T00:34:23.925Z,90.90
2023-01-07T00:36:50.985Z,90.85
2023-01-07T00:39:19.357Z,90.61
2023-01-07T00:41:50.261Z,90.66
2023-01-07T00:44:18.596Z,90.63
2023-01-07T00:46:45.680Z,90.40
2023-01-07T00:49:12.735Z,89.97
2023-01-07T00:51:39.771Z,90.54
2023-01-07T00:54:06.831Z,90.56
2023-01-07T00:56:35.216Z,90.60
2023-01-07T00:59:02.306Z,90.24
2023-01-07T01:01:29.500Z,90.13
2023-01-07T01:03:56.680Z,89.65
2023-01-07T01:06:23.802Z,89.92
2023-01-07T01:08:50.954Z,89.65
2023-01-07T01:11:18.284Z,89.60
2023-01-07T01:13:45.999Z,89.87
2023-01-07T01:16:14.805Z,89.65
2023-01-07T01:18:42.024Z,89.56
2023-01-07T01:21:11.526Z,90.05
2023-01-07T01:23:38.853Z,89.11
2023-01-07T01:26:07.306Z,88.74
2023-01-07T01:28:35.023Z,89.42
2023-01-07T01:31:02.271Z,89.41
2023-01-07T01:33:29.463Z,89.07
2023-01-07T01:35:56.577Z,88.87
2023-01-07T01:38:23.613Z,88.56
2023-01-07T01:40:50.743Z,88.45
2023-01-07T01:43:20.877Z,89.04
2023-01-07T01:45:47.936Z,88.42
2023-01-07T01:48:15.015Z,88.28
2023-01-07T01:50:44.589Z,88.42
2023-01-07T01:53:15.129Z,88.41
2023-01-07T01:55:45.780Z,88.20
2023-01-07T01:58:15.514Z,88.43
2023-01-07T02:00:43.248Z,88.26
2023-01-07T02:03:13.730Z,87.95
2023-01-07T02:05:41.999Z,87.76
2023-01-07T02:08:09.877Z,87.67
2023-01-07T02:10:38.225Z,87.41
2023-01-07T02:13:17.576Z,88.05
2023-01-07T02:15:47.695Z,88.21
2023-01-07T02:18:17.964Z,88.29
2023-01-07T02:20:48.116Z,87.98
2023-01-07T02:23:18.155Z,87.88
2023-01-07T02:25:45.680Z,87.61
2023-01-07T02:28:13.023Z,87.56
2023-01-07T02:30:41.496Z,88.90
2023-01-07T02:33:15.514Z,88.59
2023-01-07T02:35:45.575Z,88.18
2023-01-07T02:38:13.008Z,88.29
2023-01-07T02:40:43.057Z,88.43
2023-01-07T02:43:13.134Z,88.06
2023-01-07T02:45:46.355Z,88.38
2023-01-07T02:48:14.015Z,87.08
2023-01-07T02:50:41.096Z,87.69
2023-01-07T02:53:11.731Z,88.21
2023-01-07T02:55:41.884Z,87.86
2023-01-07T02:58:12.079Z,87.87
2023-01-07T03:00:39.567Z,86.95
2023-01-07T03:03:06.988Z,87.42
2023-01-07T03:05:37.113Z,87.59
2023-01-07T03:08:04.484Z,87.10
2023-01-07T03:10:34.920Z,86.97
2023-01-07T03:13:04.891Z,86.67
2023-01-07T03:15:38.030Z,86.08
2023-01-07T03:18:08.084Z,85.90
2023-01-07T03:20:37.804Z,86.72
2023-01-07T03:23:06.701Z,87.65
2023-01-07T03:25:35.566Z,86.56
2023-01-07T03:28:03.031Z,87.13
2023-01-07T03:30:30.544Z,87.42
2023-01-07T03:33:01.814Z,87.53
2023-01-07T03:35:31.231Z,86.73
2023-01-07T03:38:00.538Z,86.32
2023-01-07T03:40:27.750Z,86.26
2023-01-07T03:42:55.189Z,86.66
2023-01-07T03:45:23.388Z,86.88
2023-01-07T03:47:51.275Z,86.45
2023-01-07T03:50:18.548Z,86.59
2023-01-07T03:52:45.767Z,85.60
2023-01-07T03:55:12.806Z,86.06
2023-01-07T03:57:40.088Z,85.58
2023-01-07T04:00:08.112Z,85.57
2023-01-07T04:02:35.271Z,86.23
2023-01-07T04:05:02.343Z,85.99
2023-01-07T04:07:29.342Z,85.26
2023-01-07T04:09:56.530Z,85.41
2023-01-07T04:12:23.604Z,85.53
2023-01-07T04:14:50.608Z,85.28
2023-01-07T04:17:17.625Z,85.02
2023-01-07T04:19:45.691Z,85.50
2023-01-07T04:22:12.821Z,86.20
2023-01-07T04:24:39.951Z,85.91
2023-01-07T04:27:07.021Z,85.19
2023-01-07T04:29:34.145Z,84.15
2023-01-07T04:32:01.291Z,84.59
2023-01-07T04:34:28.303Z,84.33
2023-01-07T04:36:55.385Z,85.42
2023-01-07T04:39:22.585Z,84.91
2023-01-07T04:41:49.669Z,84.52
2023-01-07T04:44:18.168Z,84.77
2023-01-07T04:46:45.418Z,84.20
2023-01-07T04:49:12.643Z,84.35
2023-01-07T04:51:39.740Z,84.15
2023-01-07T04:54:06.772Z,83.08
2023-01-07T04:56:33.953Z,83.13
2023-01-07T04:59:01.003Z,83.02
2023-01-07T05:01:31.326Z,83.01
2023-01-07T05:03:58.715Z,82.87
2023-01-07T05:06:26.068Z,82.73
2023-01-07T05:08:53.313Z,83.06
2023-01-07T05:11:22.120Z,83.32
2023-01-07T05:13:49.942Z,82.82
2023-01-07T05:16:17.543Z,82.44
2023-01-07T05:18:44.945Z,82.62
2023-01-07T05:21:12.777Z,83.21
2023-01-07T05:23:40.057Z,84.10
2023-01-07T05:26:07.224Z,83.47
2023-01-07T05:28:34.415Z,83.21
2023-01-07T05:31:01.511Z,83.17
2023-01-07T05:33:28.829Z,82.82
2023-01-07T05:35:56.044Z,82.41
2023-01-07T05:38:23.172Z,82.43
2023-01-07T05:40:50.553Z,81.78
2023-01-07T05:43:17.805Z,82.14
2023-01-07T05:45:46.862Z,82.86
2023-01-07T05:48:14.700Z,82.62
2023-01-07T05:50:42.279Z,82.57
2023-01-07T05:53:09.324Z,82.81
2023-01-07T05:55:37.891Z,82.64
2023-01-07T05:58:05.121Z,82.17
2023-01-07T06:00:32.123Z,82.36
2023-01-07T06:02:59.144Z,81.90
2023-01-07T06:05:26.530Z,82.73
2023-01-07T06:07:53.555Z,82.27
2023-01-07T06:10:20.771Z,81.57
2023-01-07T06:12:48.010Z,81.57
2023-01-07T06:15:15.120Z,81.93
2023-01-07T06:17:42.198Z,81.37
2023-01-07T06:20:09.709Z,80.82
2023-01-07T06:22:36.931Z,81.48
2023-01-07T06:25:04.684Z,81.54
2023-01-07T06:27:31.821Z,81.28
2023-01-07T06:29:58.889Z,81.32
2023-01-07T06:32:26.074Z,80.99
2023-01-07T06:34:53.164Z,82.02
2023-01-07T06:37:20.247Z,81.93
2023-01-07T06:39:47.270Z,82.11
2023-01-07T06:42:14.243Z,81.60
2023-01-07T06:44:41.372Z,81.33
2023-01-07T06:47:08.497Z,81.43
2023-01-07T06:49:35.567Z,82.27
2023-01-07T06:52:02.591Z,80.79
2023-01-07T06:54:29.994Z,81.00
2023-01-07T06:56:57.145Z,80.84
2023-01-07T06:59:24.174Z,80.92
2023-01-07T07:01:51.287Z,81.72
2023-01-07T07:04:18.436Z,82.02
2023-01-07T07:06:45.654Z,82.14
2023-01-07T07:09:12.666Z,81.29
2023-01-07T07:11:39.704Z,81.68
2023-01-07T07:14:06.761Z,80.79
2023-01-07T07:16:33.883Z,81.06
2023-01-07T07:19:02.173Z,80.68
2023-01-07T07:21:29.249Z,80.66
2023-01-07T07:23:56.369Z,81.38
2023-01-07T07:26:23.427Z,80.77
2023-01-07T07:28:50.447Z,81.50
2023-01-07T07:31:17.508Z,81.29
2023-01-07T07:33:44.639Z,81.08
2023-01-07T07:36:11.726Z,80.70
2023-01-07T07:38:38.801Z,80.73
2023-01-07T07:41:05.990Z,80.86
2023-01-07T07:43:35.079Z,80.98
2023-01-07T07:46:02.300Z,80.35
2023-01-07T07:48:29.427Z,80.53
2023-01-07T07:50:56.494Z,80.68
2023-01-07T07:53:24.892Z,81.20
2023-01-07T07:55:53.541Z,80.42
2023-01-07T07:58:20.973Z,80.97
2023-01-07T08:00:48.047Z,80.43
2023-01-07T08:03:15.178Z,80.66
2023-01-07T08:05:43.206Z,81.35
2023-01-07T08:08:11.981Z,81.00
2023-01-07T08:10:39.335Z,80.68
2023-01-07T08:13:06.604Z,81.31
2023-01-07T08:15:33.669Z,81.36
2023-01-07T08:18:01.924Z,81.58
2023-01-07T08:20:29.238Z,81.54
2023-01-07T08:22:58.803Z,81.51
2023-01-07T08:25:25.842Z,82.29
2023-01-07T08:27:55.087Z,82.83
2023-01-07T08:30:22.802Z,83.10
2023-01-07T08:32:49.974Z,83.62
2023-01-07T08:35:17.198Z,83.40
2023-01-07T08:37:44.445Z,83.92
2023-01-07T08:40:12.902Z,84.71
2023-01-07T08:42:40.701Z,84.90
2023-01-07T08:45:08.598Z,84.96
2023-01-07T08:47:35.916Z,85.19
2023-01-07T08:50:04.135Z,85.54
2023-01-07T08:52:31.153Z,85.75
2023-01-07T08:54:58.353Z,86.36
2023-01-07T08:57:25.418Z,86.30
2023-01-07T08:59:52.532Z,87.00
2023-01-07T09:02:20.443Z,87.43
2023-01-07T09:04:47.642Z,87.46
2023-01-07T09:07:14.743Z,88.22
2023-01-07T09:09:43.431Z,88.32
2023-01-07T09:12:11.207Z,88.10
2023-01-07T09:14:38.484Z,88.23
2023-01-07T09:17:05.604Z,89.18
2023-01-07T09:19:32.864Z,89.47
2023-01-07T09:22:00.014Z,89.78
2023-01-07T09:24:27.108Z,90.05
2023-01-07T09:26:53.875Z,91.09
2023-01-07T09:29:20.779Z,91.69
2023-01-07T09:31:48.229Z,91.19
2023-01-07T09:34:14.954Z,90.28
2023-01-07T09:36:41.702Z,91.35
2023-01-07T09:39:10.700Z,91.61
2023-01-07T09:41:38.874Z,91.64
2023-01-07T09:44:15.944Z,92.13
2023-01-07T09:46:43.143Z,91.94
2023-01-07T09:49:17.629Z,92.51
2023-01-07T09:51:46.548Z,92.21
2023-01-07T09:54:21.972Z,91.92
2023-01-07T09:56:48.824Z,92.20
2023-01-07T09:59:15.577Z,92.21
2023-01-07T10:01:51.693Z,92.51
2023-01-07T10:04:20.229Z,93.24
2023-01-07T10:06:53.649Z,92.83
2023-01-07T10:09:29.724Z,92.87
2023-01-07T10:12:05.412Z,92.23
2023-01-07T10:14:41.453Z,91.61
2023-01-07T10:17:19.704Z,92.11
2023-01-07T10:19:52.510Z,91.98
2023-01-07T10:22:20.543Z,92.17
2023-01-07T10:24:49.226Z,92.13
2023-01-07T10:27:18.683Z,92.68
2023-01-07T10:29:50.957Z,92.39
2023-01-07T10:32:19.716Z,92.08
2023-01-07T10:34:47.860Z,91.71
2023-01-07T10:37:20.341Z,91.75
2023-01-07T10:39:47.226Z,91.68
2023-01-07T10:42:14.098Z,91.77
2023-01-07T10:44:41.927Z,91.98
2023-01-07T10:47:09.898Z,92.05
2023-01-07T10:49:46.535Z,92.67
2023-01-07T10:52:19.443Z,92.70
2023-01-07T10:54:58.176Z,92.71
2023-01-07T10:57:27.404Z,92.68
2023-01-07T10:59:55.365Z,91.71
2023-01-07T11:02:23.184Z,91.33
2023-01-07T11:04:50.152Z,91.70
2023-01-07T11:07:26.499Z,91.29
2023-01-07T11:09:53.750Z,91.69
2023-01-07T11:12:21.647Z,90.90
2023-01-07T11:14:49.494Z,90.97
2023-01-07T11:17:24.513Z,90.42
2023-01-07T11:19:52.532Z,89.70
2023-01-07T11:22:26.616Z,90.19
2023-01-07T11:24:53.949Z,89.64
2023-01-07T11:27:22.178Z,89.49
2023-01-07T11:29:56.029Z,89.10
2023-01-07T11:32:26.457Z,89.45
2023-01-07T11:35:02.482Z,89.15
2023-01-07T11:37:38.661Z,90.88
2023-01-07T11:40:21.154Z,90.83
2023-01-07T11:42:48.434Z,90.70
2023-01-07T11:45:18.420Z,89.09
2023-01-07T11:47:48.232Z,88.75
2023-01-07T11:50:21.313Z,88.69
2023-01-07T11:52:55.994Z,88.38
2023-01-07T11:55:23.462Z,87.96
2023-01-07T11:58:03.513Z,88.25
2023-01-07T12:00:40.935Z,88.13
2023-01-07T12:03:12.385Z,87.99
2023-01-07T12:05:41.074Z,87.89
2023-01-07T12:08:20.972Z,87.98
2023-01-07T12:10:53.870Z,88.96
2023-01-07T12:13:23.638Z,89.62
2023-01-07T12:15:53.660Z,88.12
2023-01-07T12:18:27.739Z,88.20
2023-01-07T12:21:01.740Z,88.41
2023-01-07T12:23:28.913Z,88.23
2023-01-07T12:26:04.504Z,87.98
2023-01-07T12:28:34.422Z,88.86
2023-01-07T12:31:09.936Z,88.61
2023-01-07T12:33:44.028Z,89.12
2023-01-07T12:36:15.368Z,88.63
2023-01-07T12:38:43.444Z,89.10
2023-01-07T12:41:21.101Z,89.86
2023-01-07T12:43:58.048Z,91.93
2023-01-07T12:46:27.498Z,91.68
2023-01-07T12:49:02.393Z,90.56
2023-01-07T12:51:31.477Z,90.27
2023-01-07T12:54:02.112Z,90.29
2023-01-07T12:56:38.443Z,90.28
2023-01-07T12:59:46.176Z,90.21
2023-01-07T13:02:12.122Z,89.85
2023-01-07T13:04:45.202Z,90.36
2023-01-07T13:07:15.428Z,89.50
2023-01-07T13:09:48.155Z,89.48
2023-01-07T13:12:40.898Z,89.55
2023-01-07T13:15:20.202Z,90.28
2023-01-07T13:17:48.333Z,90.78
2023-01-07T13:20:16.161Z,90.48
2023-01-07T13:22:46.623Z,90.81
2023-01-07T13:25:13.657Z,90.60
2023-01-07T13:27:49.743Z,90.16
2023-01-07T13:30:24.345Z,90.07
2023-01-07T13:32:51.206Z,90.51
2023-01-07T13:35:29.091Z,91.36
2023-01-07T13:37:55.963Z,90.91
2023-01-07T13:40:24.240Z,91.52
2023-01-07T13:42:55.293Z,91.70
2023-01-07T13:45:26.956Z,91.22
2023-01-07T13:47:57.056Z,91.31
2023-01-07T13:50:24.233Z,91.79
2023-01-07T13:53:00.449Z,92.43
2023-01-07T13:55:30.526Z,93.67
2023-01-07T13:57:57.514Z,94.21
2023-01-07T14:00:33.839Z,94.00
2023-01-07T14:03:01.886Z,94.16
2023-01-07T14:05:29.398Z,94.40
2023-01-07T14:07:59.723Z,94.86
2023-01-07T14:10:29.623Z,95.40
2023-01-07T14:13:05.375Z,96.14
2023-01-07T14:15:40.697Z,95.54
2023-01-07T14:18:07.659Z,95.58
2023-01-07T14:20:43.508Z,94.92
2023-01-07T14:23:20.151Z,94.98
2023-01-07T14:25:56.982Z,95.47
2023-01-07T14:28:24.950Z,94.99
2023-01-07T14:30:52.759Z,94.98
2023-01-07T14:33:21.462Z,94.61
2023-01-07T14:35:58.235Z,93.15
2023-01-07T14:38:34.555Z,92.82
2023-01-07T14:41:05.838Z,92.51
2023-01-07T14:43:45.819Z,92.59
2023-01-07T14:46:22.469Z,92.10
2023-01-07T14:48:58.545Z,91.62
2023-01-07T14:51:34.498Z,90.53
2023-01-07T14:54:02.489Z,90.63
2023-01-07T14:56:30.366Z,90.85
2023-01-07T14:59:05.380Z,89.53
2023-01-07T15:01:41.647Z,89.81
2023-01-07T15:04:08.690Z,89.51
2023-01-07T15:06:36.799Z,88.99
2023-01-07T15:09:16.280Z,88.79
2023-01-07T15:11:54.383Z,88.68
2023-01-07T15:14:40.582Z,87.48
2023-01-07T15:17:07.594Z,87.62
2023-01-07T15:19:37.712Z,88.60
2023-01-07T15:22:13.533Z,88.30
2023-01-07T15:24:45.850Z,88.45
2023-01-07T15:27:21.753Z,88.88
2023-01-07T15:29:48.759Z,88.68
2023-01-07T15:32:15.624Z,88.42
2023-01-07T15:34:42.465Z,88.73
2023-01-07T15:37:14.020Z,88.93
2023-01-07T15:39:45.519Z,88.83
2023-01-07T15:42:15.346Z,88.45
2023-01-07T15:44:42.587Z,88.37
2023-01-07T15:47:29.245Z,88.35
2023-01-07T15:49:56.110Z,89.07
2023-01-07T15:52:26.116Z,89.62
2023-01-07T15:54:52.845Z,88.69
2023-01-07T15:57:25.891Z,88.15
2023-01-07T15:59:53.745Z,88.35
2023-01-07T16:02:25.370Z,88.02
2023-01-07T16:04:54.409Z,87.32
2023-01-07T16:07:24.270Z,88.19
2023-01-07T16:09:51.774Z,87.41
2023-01-07T16:12:20.425Z,87.78
2023-01-07T16:14:47.175Z,87.71
2023-01-07T16:17:14.986Z,86.92
2023-01-07T16:19:42.794Z,87.22
2023-01-07T16:22:13.656Z,87.29
2023-01-07T16:24:45.957Z,88.15
2023-01-07T16:27:13.102Z,88.62
2023-01-07T16:29:46.760Z,87.87
2023-01-07T16:32:13.590Z,87.69
2023-01-07T16:34:40.671Z,88.22
2023-01-07T16:37:12.893Z,88.89
2023-01-07T16:39:41.645Z,89.49
2023-01-07T16:42:24.613Z,90.73
2023-01-07T16:44:51.578Z,90.50
2023-01-07T16:47:21.741Z,89.82
2023-01-07T16:49:52.751Z,90.03
2023-01-07T16:52:20.365Z,90.70
2023-01-07T16:54:48.063Z,88.92
2023-01-07T16:57:15.295Z,88.33
2023-01-07T16:59:43.185Z,88.52
2023-01-07T17:02:19.462Z,87.42
2023-01-07T17:04:47.425Z,86.76
2023-01-07T17:07:23.571Z,88.08
2023-01-07T17:09:52.660Z,88.04
2023-01-07T17:12:28.540Z,88.15
2023-01-07T17:14:55.316Z,88.18
2023-01-07T17:17:30.554Z,88.56
2023-01-07T17:22:34.172Z,87.73
2023-01-07T17:25:10.681Z,87.28
2023-01-07T17:27:40.878Z,87.74
2023-01-07T17:30:10.650Z,87.07
2023-01-07T17:32:40.194Z,87.34
2023-01-07T17:35:07.320Z,87.44
2023-01-07T17:37:34.899Z,86.67
2023-01-07T17:40:01.647Z,85.99
2023-01-07T17:42:39.931Z,86.05
2023-01-07T17:45:07.489Z,86.21
2023-01-07T17:47:34.609Z,86.24
2023-01-07T17:50:01.763Z,86.67
2023-01-07T17:52:29.124Z,87.76
2023-01-07T17:54:55.809Z,88.45
2023-01-07T17:57:22.849Z,85.67
2023-01-07T17:59:50.131Z,81.81
2023-01-07T18:02:18.997Z,83.17
2023-01-07T18:04:45.848Z,83.71
2023-01-07T18:07:13.976Z,82.38
2023-01-07T18:09:42.276Z,81.07
2023-01-07T18:12:23.440Z,80.09
2023-01-07T18:14:50.146Z,80.07
2023-01-07T18:17:16.799Z,80.44
2023-01-07T18:19:43.523Z,79.84
2023-01-07T18:22:10.316Z,79.32
2023-01-07T18:24:37.127Z,79.40
2023-01-07T18:27:03.883Z,78.13
2023-01-07T18:29:30.560Z,76.85
2023-01-07T18:31:57.338Z,78.54
2023-01-07T18:34:24.034Z,79.24
2023-01-07T18:36:50.750Z,78.22
2023-01-07T18:39:19.857Z,78.12
2023-01-07T18:41:48.908Z,78.24
2023-01-07T18:44:15.718Z,78.85
2023-01-07T18:46:42.469Z,78.55
2023-01-07T18:49:10.395Z,79.45
2023-01-07T18:51:37.058Z,79.53
2023-01-07T18:54:04.015Z,79.37
2023-01-07T18:56:30.709Z,79.58
2023-01-07T18:58:57.515Z,79.77
2023-01-07T19:01:24.393Z,80.61
2023-01-07T19:03:51.801Z,80.69
2023-01-07T19:06:18.590Z,79.75
2023-01-07T19:08:45.306Z,79.43
2023-01-07T19:11:13.216Z,79.06
2023-01-07T19:13:40.023Z,79.33
2023-01-07T19:16:08.296Z,79.74
2023-01-07T19:18:35.073Z,79.53
2023-01-07T19:21:02.851Z,80.13
2023-01-07T19:23:29.585Z,79.23
2023-01-07T19:25:57.383Z,78.51
2023-01-07T19:28:24.130Z,79.10
2023-01-07T19:30:50.795Z,79.54
2023-01-07T19:33:17.489Z,80.60
2023-01-07T19:35:44.178Z,80.64
2023-01-07T19:38:12.919Z,80.86
2023-01-07T19:40:43.957Z,81.29
2023-01-07T19:43:12.067Z,81.47
2023-01-07T19:45:39.322Z,81.44
2023-01-07T19:48:06.449Z,81.67
2023-01-07T19:50:33.221Z,82.04
2023-01-07T19:53:00.245Z,81.94
2023-01-07T19:55:27.345Z,81.71
2023-01-07T19:57:55.478Z,81.80
2023-01-07T20:00:22.325Z,81.23
2023-01-07T20:02:49.052Z,81.55
2023-01-07T20:05:16.140Z,81.63
2023-01-07T20:07:42.821Z,81.47
2023-01-07T20:10:10.887Z,81.85
2023-01-07T20:12:37.582Z,81.39
2023-01-07T20:15:04.683Z,81.56
2023-01-07T20:17:31.424Z,82.01
2023-01-07T20:19:58.245Z,82.72
2023-01-07T20:22:24.972Z,82.44
2023-01-07T20:24:51.673Z,82.05
2023-01-07T20:27:18.369Z,81.66
2023-01-07T20:29:46.225Z,81.16
2023-01-07T20:32:13.023Z,81.78
2023-01-07T20:34:39.679Z,81.56
2023-01-07T20:37:06.364Z,81.70
2023-01-07T20:39:33.142Z,81.74
2023-01-07T20:41:59.872Z,82.05
2023-01-07T20:44:26.621Z,81.56
2023-01-07T20:46:53.274Z,82.80
2023-01-07T20:49:19.972Z,82.49
2023-01-07T20:51:46.696Z,81.96
2023-01-07T20:54:13.848Z,82.12
2023-01-07T20:56:40.766Z,82.23
2023-01-07T20:59:07.710Z,81.84
2023-01-07T21:01:34.501Z,82.36
2023-01-07T21:04:02.167Z,82.79
2023-01-07T21:06:28.831Z,82.65
2023-01-07T21:08:55.549Z,82.72
2023-01-07T21:11:23.599Z,81.66
2023-01-07T21:13:50.805Z,82.15
2023-01-07T21:16:17.714Z,82.56
2023-01-07T21:18:45.781Z,83.09
2023-01-07T21:21:13.959Z,82.13
2023-01-07T21:23:40.711Z,82.56
2023-01-07T21:26:08.269Z,82.77
2023-01-07T21:28:35.431Z,82.56
2023-01-07T21:31:05.213Z,83.00
2023-01-07T21:33:32.875Z,83.27
2023-01-07T21:35:59.917Z,82.71
2023-01-07T21:38:26.591Z,82.44
2023-01-07T21:40:54.223Z,82.67
2023-01-07T21:43:20.976Z,82.08
2023-01-07T21:45:47.779Z,83.01
2023-01-07T21:48:14.443Z,82.86
2023-01-07T21:50:41.236Z,82.15
2023-01-07T21:53:07.918Z,81.96
2023-01-07T21:55:37.229Z,81.55
2023-01-07T21:58:03.892Z,81.69
2023-01-07T22:00:30.604Z,81.81
2023-01-07T22:02:57.408Z,81.63
2023-01-07T22:05:24.108Z,81.94
2023-01-07T22:07:50.828Z,81.52
2023-01-07T22:10:17.606Z,81.04
2023-01-07T22:12:44.389Z,81.22
2023-01-07T22:15:11.272Z,81.44
2023-01-07T22:17:38.019Z,81.02
2023-01-07T22:20:05.588Z,80.88
2023-01-07T22:22:32.358Z,81.22
2023-01-07T22:24:59.448Z,81.38
2023-01-07T22:27:32.310Z,81.89
2023-01-07T22:30:02.235Z,81.83
2023-01-07T22:32:29.093Z,80.94
2023-01-07T22:35:19.527Z,80.50
2023-01-07T22:37:47.658Z,80.51
2023-01-07T22:40:14.616Z,80.64
2023-01-07T22:42:53.346Z,80.52
2023-01-07T22:45:25.103Z,80.43
2023-01-07T22:47:51.951Z,80.31
2023-01-07T22:50:18.884Z,80.74
2023-01-07T22:52:46.120Z,80.73
2023-01-07T22:55:13.121Z,80.75
2023-01-07T22:57:40.593Z,81.36
2023-01-07T23:00:10.322Z,81.22
2023-01-07T23:02:37.009Z,81.32
2023-01-07T23:05:03.808Z,82.19
2023-01-07T23:07:30.542Z,81.71
2023-01-07T23:09:57.226Z,82.27
2023-01-07T23:12:23.974Z,83.55
2023-01-07T23:14:50.630Z,82.53
2023-01-07T23:17:17.352Z,82.17
2023-01-07T23:19:43.996Z,82.38
2023-01-07T23:22:10.709Z,82.86
2023-01-07T23:24:37.514Z,82.33
2023-01-07T23:27:04.291Z,82.67
2023-01-07T23:29:30.949Z,82.13
2023-01-07T23:31:57.777Z,81.99
2023-01-07T23:34:24.524Z,82.44
2023-01-07T23:36:51.190Z,82.42
2023-01-07T23:39:18.014Z,82.96
2023-01-07T23:41:45.825Z,83.04
2023-01-07T23:44:12.515Z,82.78
2023-01-07T23:46:39.194Z,82.79
2023-01-07T23:49:05.937Z,83.46
2023-01-07T23:51:32.865Z,83.62
2023-01-07T23:53:59.536Z,83.83
2023-01-07T23:56:26.243Z,83.66
2023-01-07T23:58:53.066Z,83.33
